createdAt,value
2023-04-09T00:00:30.803Z,0.00
2023-04-09T00:01:30.914Z,0.00
2023-04-09T00:02:30.795Z,0.00
2023-04-09T00:03:30.818Z,0.00
2023-04-09T00:04:30.803Z,0.00
2023-04-09T00:05:30.732Z,0.00
2023-04-09T00:06:30.723Z,0.00
2023-04-09T00:07:30.726Z,0.00
2023-04-09T00:08:30.705Z,0.00
2023-04-09T00:09:30.697Z,0.00
2023-04-09T00:10:30.697Z,0.00
2023-04-09T00:11:30.680Z,0.00
2023-04-09T00:12:30.649Z,0.00
2023-04-09T00:14:32.622Z,0.00
2023-04-09T00:15:31.934Z,0.00
2023-04-09T00:16:30.676Z,0.00
2023-04-09T00:17:30.628Z,0.00
2023-04-09T00:18:30.576Z,0.00
2023-04-09T00:19:30.575Z,0.00
2023-04-09T00:20:30.560Z,0.00
2023-04-09T00:21:30.543Z,0.00
2023-04-09T00:22:30.538Z,0.00
2023-04-09T00:23:30.521Z,0.00
2023-04-09T00:24:30.532Z,0.00
2023-04-09T00:25:30.501Z,0.00
2023-04-09T00:26:30.506Z,0.00
2023-04-09T00:27:30.473Z,0.00
2023-04-09T00:28:30.461Z,0.00
2023-04-09T00:29:30.449Z,0.00
2023-04-09T00:30:30.443Z,0.00
2023-04-09T00:31:30.462Z,0.00
2023-04-09T00:32:30.436Z,0.00
2023-04-09T00:33:30.406Z,0.00
2023-04-09T00:34:30.397Z,0.00
2023-04-09T00:35:30.496Z,0.00
2023-04-09T00:36:30.369Z,0.00
2023-04-09T00:37:30.375Z,0.00
2023-04-09T00:38:30.347Z,0.00
2023-04-09T00:39:30.341Z,0.00
2023-04-09T00:40:30.325Z,0.00
2023-04-09T00:41:30.320Z,0.00
2023-04-09T00:42:30.329Z,0.00
2023-04-09T00:43:30.296Z,0.00
2023-04-09T00:44:30.281Z,0.00
2023-04-09T00:45:30.300Z,0.00
2023-04-09T00:46:30.265Z,0.00
2023-04-09T00:47:30.277Z,0.00
2023-04-09T00:48:30.242Z,0.00
2023-04-09T00:49:30.224Z,0.00
2023-04-09T00:50:30.211Z,0.00
2023-04-09T00:51:30.204Z,0.00
2023-04-09T00:52:30.188Z,0.00
2023-04-09T00:53:30.179Z,0.00
2023-04-09T00:54:30.189Z,0.00
2023-04-09T00:55:30.176Z,0.00
2023-04-09T00:56:30.148Z,0.00
2023-04-09T00:57:30.139Z,0.00
2023-04-09T00:58:30.149Z,0.00
2023-04-09T00:59:30.114Z,0.00
2023-04-09T01:00:30.099Z,0.00
2023-04-09T01:01:30.137Z,0.00
2023-04-09T01:02:30.174Z,0.00
2023-04-09T01:03:30.092Z,0.00
2023-04-09T01:04:30.060Z,0.00
2023-04-09T01:05:30.050Z,0.00
2023-04-09T01:06:30.029Z,0.00
2023-04-09T01:07:30.027Z,0.00
2023-04-09T01:08:30.018Z,0.00
2023-04-09T01:09:29.999Z,0.00
2023-04-09T01:10:29.993Z,0.00
2023-04-09T01:11:31.977Z,0.00
2023-04-09T01:12:29.969Z,0.00
2023-04-09T01:13:29.965Z,0.00
2023-04-09T01:14:29.991Z,0.00
2023-04-09T01:15:29.945Z,0.00
2023-04-09T01:16:29.935Z,0.00
2023-04-09T01:17:30.008Z,0.00
2023-04-09T01:18:29.904Z,0.00
2023-04-09T01:19:29.888Z,0.00
2023-04-09T01:20:29.883Z,0.00
2023-04-09T01:21:29.862Z,0.00
2023-04-09T01:22:29.852Z,0.00
2023-04-09T01:23:29.853Z,0.00
2023-04-09T01:24:29.844Z,0.00
2023-04-09T01:25:29.821Z,0.00
2023-04-09T01:26:29.809Z,0.00
2023-04-09T01:27:29.798Z,0.00
2023-04-09T01:28:29.788Z,0.00
2023-04-09T01:29:29.777Z,0.00
2023-04-09T01:30:29.834Z,0.00
2023-04-09T01:31:29.779Z,0.00
2023-04-09T01:32:29.811Z,0.00
2023-04-09T01:33:29.731Z,0.00
2023-04-09T01:34:29.723Z,0.00
2023-04-09T01:35:29.727Z,0.00
2023-04-09T01:36:29.702Z,0.00
2023-04-09T01:37:29.689Z,0.00
2023-04-09T01:38:29.677Z,0.00
2023-04-09T01:39:29.668Z,0.00
2023-04-09T01:40:29.657Z,0.00
2023-04-09T01:41:29.643Z,0.00
2023-04-09T01:42:29.637Z,0.00
2023-04-09T01:43:29.631Z,0.00
2023-04-09T01:44:29.612Z,0.00
2023-04-09T01:45:29.617Z,0.00
2023-04-09T01:46:29.801Z,0.00
2023-04-09T01:47:29.603Z,0.00
2023-04-09T01:48:29.580Z,0.00
2023-04-09T01:49:29.554Z,0.00
2023-04-09T01:50:29.564Z,0.00
2023-04-09T01:51:29.537Z,0.00
2023-04-09T01:52:29.530Z,0.00
2023-04-09T01:53:29.511Z,0.00
2023-04-09T01:54:29.505Z,0.00
2023-04-09T01:55:29.498Z,0.00
2023-04-09T01:56:29.485Z,0.00
2023-04-09T01:57:29.477Z,0.00
2023-04-09T01:58:29.461Z,0.00
2023-04-09T01:59:29.445Z,0.00
2023-04-09T02:00:29.436Z,0.00
2023-04-09T02:01:29.437Z,0.00
2023-04-09T02:02:29.566Z,0.00
2023-04-09T02:03:29.491Z,0.00
2023-04-09T02:04:29.410Z,0.00
2023-04-09T02:05:29.378Z,0.00
2023-04-09T02:06:29.370Z,0.00
2023-04-09T02:07:29.393Z,0.00
2023-04-09T02:08:29.364Z,0.00
2023-04-09T02:09:29.342Z,0.00
2023-04-09T02:10:29.324Z,0.00
2023-04-09T02:11:29.314Z,0.00
2023-04-09T02:12:29.304Z,0.00
2023-04-09T02:13:29.297Z,0.00
2023-04-09T02:14:29.280Z,0.00
2023-04-09T02:15:29.290Z,0.00
2023-04-09T02:16:29.265Z,0.00
2023-04-09T02:17:29.274Z,0.00
2023-04-09T02:18:29.270Z,0.00
2023-04-09T02:19:29.232Z,0.00
2023-04-09T02:20:29.221Z,0.00
2023-04-09T02:21:29.215Z,0.00
2023-04-09T02:22:29.203Z,0.00
2023-04-09T02:23:29.183Z,0.00
2023-04-09T02:24:29.170Z,0.00
2023-04-09T02:25:29.175Z,0.00
2023-04-09T02:26:29.150Z,0.00
2023-04-09T02:27:29.140Z,0.00
2023-04-09T02:28:29.130Z,0.00
2023-04-09T02:29:29.115Z,0.00
2023-04-09T02:30:29.111Z,0.00
2023-04-09T02:31:29.178Z,0.00
2023-04-09T02:32:29.102Z,0.00
2023-04-09T02:33:29.078Z,0.00
2023-04-09T02:34:29.129Z,0.00
2023-04-09T02:35:29.049Z,0.00
2023-04-09T02:36:29.044Z,0.00
2023-04-09T02:37:29.026Z,0.00
2023-04-09T02:38:29.019Z,0.00
2023-04-09T02:39:29.012Z,0.00
2023-04-09T02:40:28.993Z,0.00
2023-04-09T02:41:28.990Z,0.00
2023-04-09T02:42:29.003Z,0.00
2023-04-09T02:43:28.960Z,0.00
2023-04-09T02:44:28.951Z,0.00
2023-04-09T02:45:28.939Z,0.00
2023-04-09T02:46:29.032Z,0.00
2023-04-09T02:47:28.928Z,0.00
2023-04-09T02:48:28.905Z,0.00
2023-04-09T02:49:28.900Z,0.00
2023-04-09T02:50:29.502Z,0.00
2023-04-09T02:51:28.874Z,0.00
2023-04-09T02:52:28.861Z,0.00
2023-04-09T02:53:28.852Z,0.00
2023-04-09T02:54:28.840Z,0.00
2023-04-09T02:55:28.831Z,0.00
2023-04-09T02:56:28.835Z,0.00
2023-04-09T02:57:28.808Z,0.00
2023-04-09T02:58:28.805Z,0.00
2023-04-09T02:59:28.788Z,0.00
2023-04-09T03:00:28.778Z,0.00
2023-04-09T03:01:28.807Z,0.00
2023-04-09T03:02:28.942Z,0.00
2023-04-09T03:03:28.810Z,0.00
2023-04-09T03:04:28.737Z,0.00
2023-04-09T03:05:28.714Z,0.00
2023-04-09T03:06:28.729Z,0.00
2023-04-09T03:07:28.718Z,0.00
2023-04-09T03:08:28.718Z,0.00
2023-04-09T03:09:28.674Z,0.00
2023-04-09T03:10:28.672Z,0.00
2023-04-09T03:11:28.658Z,0.00
2023-04-09T03:12:28.644Z,0.00
2023-04-09T03:13:28.639Z,0.00
2023-04-09T03:14:28.622Z,0.00
2023-04-09T03:15:28.607Z,0.00
2023-04-09T03:16:28.599Z,0.00
2023-04-09T03:17:28.607Z,0.00
2023-04-09T03:18:28.579Z,0.00
2023-04-09T03:19:28.558Z,0.00
2023-04-09T03:20:28.575Z,0.00
2023-04-09T03:21:28.548Z,0.00
2023-04-09T03:22:28.546Z,0.00
2023-04-09T03:23:28.517Z,0.00
2023-04-09T03:24:28.505Z,0.00
2023-04-09T03:25:28.494Z,0.00
2023-04-09T03:26:28.481Z,0.00
2023-04-09T03:27:28.475Z,0.00
2023-04-09T03:28:28.463Z,0.00
2023-04-09T03:29:28.450Z,0.00
2023-04-09T03:30:28.437Z,0.00
2023-04-09T03:31:28.479Z,0.00
2023-04-09T03:32:28.445Z,0.00
2023-04-09T03:33:28.412Z,0.00
2023-04-09T03:34:28.404Z,0.00
2023-04-09T03:35:28.407Z,0.00
2023-04-09T03:36:28.367Z,0.00
2023-04-09T03:37:28.373Z,0.00
2023-04-09T03:38:28.388Z,0.00
2023-04-09T03:39:28.368Z,0.00
2023-04-09T03:40:28.327Z,0.00
2023-04-09T03:41:28.316Z,0.00
2023-04-09T03:42:28.299Z,0.00
2023-04-09T03:43:28.293Z,0.00
2023-04-09T03:44:28.291Z,0.00
2023-04-09T03:45:28.266Z,0.00
2023-04-09T03:46:28.311Z,0.00
2023-04-09T03:47:28.301Z,0.00
2023-04-09T03:48:28.234Z,0.00
2023-04-09T03:49:28.229Z,0.00
2023-04-09T03:50:28.241Z,0.00
2023-04-09T03:51:28.207Z,0.00
2023-04-09T03:52:28.211Z,0.00
2023-04-09T03:53:28.196Z,0.00
2023-04-09T03:54:28.197Z,0.00
2023-04-09T03:55:28.159Z,0.00
2023-04-09T03:56:28.146Z,0.00
2023-04-09T03:57:28.127Z,0.00
2023-04-09T03:58:28.116Z,0.00
2023-04-09T03:59:28.107Z,0.00
2023-04-09T04:00:28.098Z,0.00
2023-04-09T04:01:28.080Z,4.00
2023-04-09T04:02:28.199Z,4.00
2023-04-09T04:03:30.269Z,4.00
2023-04-09T04:04:28.140Z,0.00
2023-04-09T04:05:28.042Z,4.00
2023-04-09T04:06:28.035Z,4.00
2023-04-09T04:07:30.012Z,4.00
2023-04-09T04:08:28.012Z,4.00
2023-04-09T04:09:27.987Z,4.00
2023-04-09T04:10:30.014Z,8.00
2023-04-09T04:11:27.965Z,8.00
2023-04-09T04:12:27.955Z,12.00
2023-04-09T04:13:27.972Z,8.00
2023-04-09T04:14:29.929Z,12.00
2023-04-09T04:15:27.922Z,12.00
2023-04-09T04:16:27.926Z,16.00
2023-04-09T04:17:27.978Z,16.00
2023-04-09T04:18:27.886Z,20.00
2023-04-09T04:19:27.876Z,20.00
2023-04-09T04:20:27.858Z,24.00
2023-04-09T04:21:29.853Z,24.00
2023-04-09T04:22:27.839Z,28.00
2023-04-09T04:23:27.839Z,32.00
2023-04-09T04:24:27.826Z,32.00
2023-04-09T04:25:27.802Z,32.00
2023-04-09T04:26:27.825Z,40.00
2023-04-09T04:27:27.785Z,40.00
2023-04-09T04:28:27.769Z,44.00
2023-04-09T04:29:29.756Z,48.00
2023-04-09T04:30:27.745Z,48.00
2023-04-09T04:31:27.760Z,56.00
2023-04-09T04:32:29.734Z,56.00
2023-04-09T04:33:29.719Z,60.00
2023-04-09T04:34:27.704Z,64.00
2023-04-09T04:35:27.720Z,68.00
2023-04-09T04:36:27.678Z,72.00
2023-04-09T04:37:27.668Z,76.00
2023-04-09T04:38:27.670Z,80.00
2023-04-09T04:39:27.644Z,84.00
2023-04-09T04:40:27.635Z,88.00
2023-04-09T04:41:29.627Z,92.00
2023-04-09T04:42:29.634Z,92.00
2023-04-09T04:43:27.601Z,100.00
2023-04-09T04:44:29.597Z,108.00
2023-04-09T04:45:27.582Z,108.00
2023-04-09T04:46:29.561Z,112.00
2023-04-09T04:47:29.641Z,116.00
2023-04-09T04:48:27.545Z,120.00
2023-04-09T04:49:27.537Z,128.00
2023-04-09T04:50:27.533Z,132.00
2023-04-09T04:51:27.514Z,140.00
2023-04-09T04:52:27.525Z,136.00
2023-04-09T04:53:27.486Z,148.00
2023-04-09T04:54:27.472Z,156.00
2023-04-09T04:55:27.468Z,164.00
2023-04-09T04:56:27.465Z,160.00
2023-04-09T04:57:27.443Z,172.00
2023-04-09T04:58:27.454Z,184.00
2023-04-09T04:59:27.439Z,188.00
2023-04-09T05:00:27.404Z,208.00
2023-04-09T05:01:27.541Z,228.00
2023-04-09T05:02:27.482Z,232.00
2023-04-09T05:03:27.798Z,232.00
2023-04-09T05:04:27.371Z,232.00
2023-04-09T05:05:27.344Z,260.00
2023-04-09T05:06:27.339Z,260.00
2023-04-09T05:07:27.324Z,248.00
2023-04-09T05:08:27.315Z,244.00
2023-04-09T05:09:27.298Z,256.00
2023-04-09T05:10:27.290Z,272.00
2023-04-09T05:11:27.282Z,268.00
2023-04-09T05:12:27.266Z,260.00
2023-04-09T05:13:27.260Z,252.00
2023-04-09T05:14:27.269Z,260.00
2023-04-09T05:15:27.237Z,272.00
2023-04-09T05:16:27.269Z,268.00
2023-04-09T05:17:27.232Z,276.00
2023-04-09T05:18:27.197Z,276.00
2023-04-09T05:19:27.186Z,260.00
2023-04-09T05:20:27.191Z,264.00
2023-04-09T05:21:27.165Z,276.00
2023-04-09T05:22:27.177Z,268.00
2023-04-09T05:23:27.138Z,288.00
2023-04-09T05:24:27.125Z,320.00
2023-04-09T05:25:27.121Z,312.00
2023-04-09T05:26:27.104Z,320.00
2023-04-09T05:27:27.100Z,344.00
2023-04-09T05:28:27.082Z,344.00
2023-04-09T05:29:27.071Z,356.00
2023-04-09T05:30:27.095Z,332.00
2023-04-09T05:31:27.050Z,328.00
2023-04-09T05:32:27.051Z,336.00
2023-04-09T05:33:27.026Z,352.00
2023-04-09T05:34:27.015Z,380.00
2023-04-09T05:35:27.008Z,404.00
2023-04-09T05:36:26.992Z,436.00
2023-04-09T05:37:26.994Z,452.00
2023-04-09T05:38:26.972Z,452.00
2023-04-09T05:39:26.968Z,444.00
2023-04-09T05:40:26.963Z,436.00
2023-04-09T05:41:26.945Z,424.00
2023-04-09T05:42:26.929Z,428.00
2023-04-09T05:43:26.924Z,448.00
2023-04-09T05:44:26.900Z,444.00
2023-04-09T05:45:26.899Z,440.00
2023-04-09T05:46:26.932Z,440.00
2023-04-09T05:47:26.915Z,440.00
2023-04-09T05:48:26.861Z,440.00
2023-04-09T05:49:26.849Z,440.00
2023-04-09T05:50:26.836Z,428.00
2023-04-09T05:51:26.831Z,428.00
2023-04-09T05:52:26.814Z,428.00
2023-04-09T05:53:26.807Z,420.00
2023-04-09T05:54:26.800Z,416.00
2023-04-09T05:55:26.780Z,408.00
2023-04-09T05:56:26.774Z,412.00
2023-04-09T05:57:26.760Z,424.00
2023-04-09T05:58:26.760Z,448.00
2023-04-09T05:59:26.739Z,488.00
2023-04-09T06:00:26.753Z,512.00
2023-04-09T06:01:26.723Z,524.00
2023-04-09T06:02:26.872Z,532.00
2023-04-09T06:03:26.796Z,544.00
2023-04-09T06:04:26.708Z,564.00
2023-04-09T06:05:26.674Z,604.00
2023-04-09T06:06:26.660Z,644.00
2023-04-09T06:07:26.649Z,720.00
2023-04-09T06:08:26.640Z,848.00
2023-04-09T06:09:26.628Z,904.00
2023-04-09T06:10:26.622Z,904.00
2023-04-09T06:11:26.616Z,896.00
2023-04-09T06:12:26.591Z,932.00
2023-04-09T06:13:26.586Z,952.00
2023-04-09T06:14:26.578Z,1056.00
2023-04-09T06:15:26.572Z,1248.00
2023-04-09T06:16:26.554Z,1352.00
2023-04-09T06:17:26.567Z,1244.00
2023-04-09T06:18:26.555Z,1152.00
2023-04-09T06:19:26.517Z,1108.00
2023-04-09T06:20:26.510Z,1120.00
2023-04-09T06:21:26.494Z,1144.00
2023-04-09T06:22:26.480Z,1144.00
2023-04-09T06:23:26.468Z,1092.00
2023-04-09T06:24:26.461Z,1060.00
2023-04-09T06:25:26.445Z,1048.00
2023-04-09T06:26:26.441Z,1036.00
2023-04-09T06:27:26.427Z,1040.00
2023-04-09T06:28:26.412Z,1032.00
2023-04-09T06:29:26.413Z,1020.00
2023-04-09T06:30:26.394Z,1020.00
2023-04-09T06:31:26.457Z,1040.00
2023-04-09T06:32:26.391Z,1072.00
2023-04-09T06:33:26.405Z,1116.00
2023-04-09T06:34:26.390Z,1164.00
2023-04-09T06:35:26.346Z,1168.00
2023-04-09T06:36:26.326Z,1124.00
2023-04-09T06:37:26.317Z,1168.00
2023-04-09T06:38:26.305Z,1224.00
2023-04-09T06:39:26.297Z,1252.00
2023-04-09T06:40:26.287Z,1304.00
2023-04-09T06:41:26.276Z,1364.00
2023-04-09T06:42:26.262Z,1436.00
2023-04-09T06:43:26.251Z,1636.00
2023-04-09T06:44:26.251Z,1716.00
2023-04-09T06:45:26.229Z,1488.00
2023-04-09T06:46:26.246Z,1476.00
2023-04-09T06:47:26.248Z,1476.00
2023-04-09T06:48:26.198Z,1468.00
2023-04-09T06:49:26.194Z,1532.00
2023-04-09T06:50:26.208Z,1560.00
2023-04-09T06:51:26.159Z,1440.00
2023-04-09T06:52:26.151Z,1528.00
2023-04-09T06:53:26.173Z,1492.00
2023-04-09T06:54:26.124Z,1464.00
2023-04-09T06:55:26.109Z,1592.00
2023-04-09T06:56:26.097Z,1636.00
2023-04-09T06:57:26.091Z,1636.00
2023-04-09T06:58:26.078Z,1536.00
2023-04-09T06:59:26.065Z,1632.00
2023-04-09T07:00:26.053Z,1700.00
2023-04-09T07:01:26.083Z,1656.00
2023-04-09T07:02:26.165Z,1684.00
2023-04-09T07:03:26.207Z,1804.00
2023-04-09T07:04:26.085Z,1872.00
2023-04-09T07:05:26.002Z,1808.00
2023-04-09T07:06:26.015Z,1828.00
2023-04-09T07:07:26.005Z,1932.00
2023-04-09T07:08:25.973Z,1920.00
2023-04-09T07:09:25.947Z,1816.00
2023-04-09T07:10:25.948Z,1824.00
2023-04-09T07:11:25.928Z,2036.00
2023-04-09T07:12:25.915Z,2012.00
2023-04-09T07:13:25.931Z,1768.00
2023-04-09T07:14:25.905Z,1668.00
2023-04-09T07:15:25.880Z,1632.00
2023-04-09T07:16:25.893Z,1536.00
2023-04-09T07:17:25.893Z,1520.00
2023-04-09T07:18:25.842Z,1480.00
2023-04-09T07:19:25.839Z,1560.00
2023-04-09T07:20:25.819Z,1648.00
2023-04-09T07:21:25.810Z,1584.00
2023-04-09T07:22:25.825Z,1572.00
2023-04-09T07:23:25.786Z,1576.00
2023-04-09T07:24:25.778Z,1584.00
2023-04-09T07:25:25.778Z,1612.00
2023-04-09T07:26:25.753Z,1648.00
2023-04-09T07:27:25.882Z,1664.00
2023-04-09T07:28:25.726Z,1680.00
2023-04-09T07:29:25.719Z,1680.00
2023-04-09T07:30:25.836Z,1632.00
2023-04-09T07:31:25.751Z,1608.00
2023-04-09T07:32:25.721Z,1596.00
2023-04-09T07:33:25.671Z,1604.00
2023-04-09T07:34:25.664Z,1612.00
2023-04-09T07:35:25.660Z,1628.00
2023-04-09T07:36:25.650Z,1672.00
2023-04-09T07:37:25.634Z,1700.00
2023-04-09T07:38:25.638Z,1816.00
2023-04-09T07:39:25.605Z,2032.00
2023-04-09T07:40:25.742Z,2176.00
2023-04-09T07:41:25.579Z,2340.00
2023-04-09T07:42:25.579Z,2588.00
2023-04-09T07:43:25.571Z,2644.00
2023-04-09T07:44:25.547Z,2448.00
2023-04-09T07:45:25.540Z,2232.00
2023-04-09T07:46:25.527Z,2072.00
2023-04-09T07:47:25.536Z,2016.00
2023-04-09T07:48:25.501Z,1984.00
2023-04-09T07:49:25.490Z,2044.00
2023-04-09T07:50:25.475Z,2264.00
2023-04-09T07:51:25.468Z,2564.00
2023-04-09T07:52:25.452Z,2760.00
2023-04-09T07:53:25.448Z,2488.00
2023-04-09T07:54:25.463Z,2252.00
2023-04-09T07:55:25.433Z,2204.00
2023-04-09T07:56:25.416Z,2284.00
2023-04-09T07:57:25.397Z,2224.00
2023-04-09T07:58:25.388Z,2232.00
2023-04-09T07:59:25.380Z,2252.00
2023-04-09T08:00:25.369Z,2256.00
2023-04-09T08:01:25.352Z,2264.00
2023-04-09T08:02:25.583Z,2368.00
2023-04-09T08:03:25.593Z,2320.00
2023-04-09T08:04:25.400Z,2296.00
2023-04-09T08:05:25.313Z,2388.00
2023-04-09T08:06:25.292Z,2488.00
2023-04-09T08:07:25.281Z,2520.00
2023-04-09T08:08:25.276Z,2440.00
2023-04-09T08:09:25.263Z,2252.00
2023-04-09T08:10:25.278Z,2240.00
2023-04-09T08:11:25.249Z,2184.00
2023-04-09T08:12:25.227Z,2196.00
2023-04-09T08:13:25.209Z,2212.00
2023-04-09T08:14:25.200Z,2176.00
2023-04-09T08:15:25.186Z,2348.00
2023-04-09T08:16:25.203Z,2724.00
2023-04-09T08:17:25.203Z,3196.00
2023-04-09T08:18:25.167Z,3568.00
2023-04-09T08:19:25.143Z,3364.00
2023-04-09T08:20:25.128Z,2992.00
2023-04-09T08:21:25.127Z,2976.00
2023-04-09T08:22:25.108Z,2780.00
2023-04-09T08:23:25.099Z,2700.00
2023-04-09T08:24:25.081Z,2676.00
2023-04-09T08:25:25.131Z,2884.00
2023-04-09T08:26:25.094Z,3148.00
2023-04-09T08:27:25.055Z,3120.00
2023-04-09T08:28:25.041Z,2876.00
2023-04-09T08:29:25.029Z,2700.00
2023-04-09T08:30:25.016Z,2800.00
2023-04-09T08:31:25.035Z,2916.00
2023-04-09T08:32:25.039Z,2820.00
2023-04-09T08:33:24.980Z,2908.00
2023-04-09T08:34:24.977Z,2840.00
2023-04-09T08:35:24.960Z,2812.00
2023-04-09T08:36:24.996Z,2680.00
2023-04-09T08:37:24.944Z,2756.00
2023-04-09T08:38:24.922Z,3012.00
2023-04-09T08:39:24.922Z,2976.00
2023-04-09T08:40:24.906Z,2824.00
2023-04-09T08:41:24.922Z,2712.00
2023-04-09T08:42:24.913Z,2884.00
2023-04-09T08:43:29.949Z,3192.00
2023-04-09T08:44:24.857Z,3468.00
2023-04-09T08:45:24.875Z,4028.00
2023-04-09T08:46:24.992Z,4176.00
2023-04-09T08:47:24.891Z,4332.00
2023-04-09T08:48:24.865Z,4620.00
2023-04-09T08:49:24.805Z,4508.00
2023-04-09T08:50:24.790Z,4288.00
2023-04-09T08:51:24.874Z,4608.00
2023-04-09T08:52:24.769Z,4840.00
2023-04-09T08:53:24.755Z,4804.00
2023-04-09T08:54:24.745Z,4496.00
2023-04-09T08:55:24.732Z,4488.00
2023-04-09T08:56:24.751Z,4660.00
2023-04-09T08:57:24.714Z,4612.00
2023-04-09T08:58:24.730Z,4688.00
2023-04-09T08:59:24.690Z,4528.00
2023-04-09T09:00:24.676Z,4696.00
2023-04-09T09:01:24.785Z,4672.00
2023-04-09T09:02:24.739Z,4552.00
2023-04-09T09:03:24.707Z,4360.00
2023-04-09T09:04:24.721Z,4656.00
2023-04-09T09:05:24.685Z,5184.00
2023-04-09T09:06:24.623Z,5740.00
2023-04-09T09:07:24.594Z,5304.00
2023-04-09T09:08:24.601Z,4860.00
2023-04-09T09:09:24.585Z,4584.00
2023-04-09T09:10:24.578Z,4268.00
2023-04-09T09:11:24.566Z,4324.00
2023-04-09T09:12:25.993Z,4432.00
2023-04-09T09:13:24.579Z,4464.00
2023-04-09T09:14:24.573Z,4188.00
2023-04-09T09:15:24.507Z,4108.00
2023-04-09T09:16:24.570Z,4172.00
2023-04-09T09:17:24.540Z,4424.00
2023-04-09T09:18:24.469Z,4504.00
2023-04-09T09:19:24.454Z,4376.00
2023-04-09T09:20:24.445Z,4376.00
2023-04-09T09:21:24.433Z,4500.00
2023-04-09T09:22:24.573Z,4688.00
2023-04-09T09:23:24.413Z,4904.00
2023-04-09T09:24:24.401Z,5348.00
2023-04-09T09:25:24.426Z,6092.00
2023-04-09T09:26:24.382Z,7564.00
2023-04-09T09:27:24.366Z,6496.00
2023-04-09T09:28:24.353Z,6668.00
2023-04-09T09:29:24.348Z,6596.00
2023-04-09T09:30:24.359Z,9140.00
2023-04-09T09:31:24.398Z,8660.00
2023-04-09T09:32:24.356Z,10432.00
2023-04-09T09:33:24.299Z,8740.00
2023-04-09T09:34:24.292Z,8256.00
2023-04-09T09:35:24.304Z,8076.00
2023-04-09T09:36:24.274Z,11224.00
2023-04-09T09:37:24.261Z,13028.00
2023-04-09T09:38:24.243Z,12540.00
2023-04-09T09:39:24.233Z,15560.00
2023-04-09T09:40:24.233Z,13960.00
2023-04-09T09:41:24.211Z,9124.00
2023-04-09T09:42:24.211Z,15144.00
2023-04-09T09:43:24.190Z,9492.00
2023-04-09T09:44:24.181Z,8340.00
2023-04-09T09:45:24.170Z,8492.00
2023-04-09T09:46:24.205Z,12400.00
2023-04-09T09:47:24.157Z,11852.00
2023-04-09T09:48:25.750Z,9540.00
2023-04-09T09:49:24.132Z,8876.00
2023-04-09T09:50:24.117Z,14152.00
2023-04-09T09:51:24.097Z,16212.00
2023-04-09T09:52:24.090Z,16012.00
2023-04-09T09:53:24.090Z,17068.00
2023-04-09T09:54:24.066Z,13020.00
2023-04-09T09:55:24.056Z,13856.00
2023-04-09T09:56:24.045Z,8552.00
2023-04-09T09:57:24.029Z,8932.00
2023-04-09T09:58:24.022Z,9640.00
2023-04-09T09:59:24.012Z,7544.00
2023-04-09T10:00:24.080Z,7468.00
2023-04-09T10:01:24.028Z,8896.00
2023-04-09T10:02:24.105Z,7940.00
2023-04-09T10:03:24.019Z,12252.00
2023-04-09T10:04:24.112Z,13084.00
2023-04-09T10:05:23.942Z,8392.00
2023-04-09T10:06:23.944Z,9304.00
2023-04-09T10:07:23.923Z,10280.00
2023-04-09T10:08:23.905Z,8620.00
2023-04-09T10:09:23.906Z,9564.00
2023-04-09T10:10:23.888Z,9124.00
2023-04-09T10:11:23.877Z,6328.00
2023-04-09T10:12:23.864Z,16160.00
2023-04-09T10:13:23.849Z,16488.00
2023-04-09T10:14:23.843Z,17920.00
2023-04-09T10:15:23.927Z,12872.00
2023-04-09T10:16:23.862Z,14600.00
2023-04-09T10:17:23.835Z,8180.00
2023-04-09T10:18:23.821Z,7880.00
2023-04-09T10:19:23.778Z,6060.00
2023-04-09T10:20:23.772Z,5968.00
2023-04-09T10:21:23.756Z,9972.00
2023-04-09T10:22:23.750Z,6104.00
2023-04-09T10:23:23.733Z,7416.00
2023-04-09T10:24:23.752Z,18720.00
2023-04-09T10:25:23.712Z,9728.00
2023-04-09T10:26:23.706Z,7352.00
2023-04-09T10:27:23.700Z,6016.00
2023-04-09T10:28:23.678Z,5132.00
2023-04-09T10:29:23.672Z,4952.00
2023-04-09T10:30:23.654Z,4868.00
2023-04-09T10:31:23.755Z,5636.00
2023-04-09T10:32:23.917Z,6928.00
2023-04-09T10:33:23.618Z,9768.00
2023-04-09T10:34:23.658Z,8560.00
2023-04-09T10:35:23.610Z,9252.00
2023-04-09T10:36:23.605Z,9888.00
2023-04-09T10:37:23.591Z,6652.00
2023-04-09T10:38:23.565Z,6168.00
2023-04-09T10:39:23.550Z,6016.00
2023-04-09T10:40:23.539Z,6084.00
2023-04-09T10:41:23.528Z,6664.00
2023-04-09T10:42:23.525Z,7488.00
2023-04-09T10:43:23.528Z,5616.00
2023-04-09T10:44:23.492Z,5748.00
2023-04-09T10:45:23.487Z,17324.00
2023-04-09T10:46:23.530Z,9464.00
2023-04-09T10:47:23.491Z,13892.00
2023-04-09T10:48:23.466Z,9648.00
2023-04-09T10:49:23.460Z,16480.00
2023-04-09T10:50:24.216Z,7948.00
2023-04-09T10:51:23.419Z,7880.00
2023-04-09T10:52:23.406Z,10300.00
2023-04-09T10:53:23.399Z,12944.00
2023-04-09T10:54:23.382Z,19072.00
2023-04-09T10:55:23.370Z,17560.00
2023-04-09T10:56:23.357Z,18368.00
2023-04-09T10:57:23.361Z,18144.00
2023-04-09T10:58:23.336Z,16896.00
2023-04-09T10:59:23.332Z,13948.00
2023-04-09T11:00:23.314Z,16704.00
2023-04-09T11:01:23.370Z,16592.00
2023-04-09T11:02:23.385Z,17036.00
2023-04-09T11:03:23.495Z,17892.00
2023-04-09T11:04:23.284Z,17540.00
2023-04-09T11:05:23.262Z,17492.00
2023-04-09T11:06:23.279Z,17228.00
2023-04-09T11:07:23.236Z,17984.00
2023-04-09T11:08:23.240Z,19328.00
2023-04-09T11:09:23.215Z,13616.00
2023-04-09T11:10:23.205Z,18388.00
2023-04-09T11:11:23.200Z,20064.00
2023-04-09T11:12:23.184Z,19168.00
2023-04-09T11:13:23.170Z,18912.00
2023-04-09T11:14:23.158Z,20000.00
2023-04-09T11:15:23.146Z,19232.00
2023-04-09T11:16:25.498Z,9672.00
2023-04-09T11:17:23.154Z,12864.00
2023-04-09T11:18:23.116Z,8528.00
2023-04-09T11:19:23.099Z,6452.00
2023-04-09T11:20:23.095Z,4508.00
2023-04-09T11:21:23.079Z,7088.00
2023-04-09T11:22:23.107Z,12828.00
2023-04-09T11:23:23.065Z,8452.00
2023-04-09T11:24:23.048Z,6560.00
2023-04-09T11:25:23.039Z,16344.00
2023-04-09T11:26:23.020Z,15960.00
2023-04-09T11:27:23.011Z,15772.00
2023-04-09T11:28:23.014Z,15424.00
2023-04-09T11:29:22.995Z,14976.00
2023-04-09T11:30:22.983Z,15048.00
2023-04-09T11:31:23.003Z,15176.00
2023-04-09T11:32:23.036Z,15488.00
2023-04-09T11:33:22.958Z,15720.00
2023-04-09T11:34:22.954Z,15056.00
2023-04-09T11:35:22.921Z,14248.00
2023-04-09T11:36:22.907Z,15696.00
2023-04-09T11:37:22.899Z,14912.00
2023-04-09T11:38:22.912Z,13896.00
2023-04-09T11:39:22.874Z,14400.00
2023-04-09T11:40:22.885Z,14288.00
2023-04-09T11:41:22.859Z,14452.00
2023-04-09T11:42:22.847Z,14180.00
2023-04-09T11:43:22.832Z,15124.00
2023-04-09T11:44:22.828Z,15648.00
2023-04-09T11:45:22.810Z,15684.00
2023-04-09T11:46:22.815Z,16108.00
2023-04-09T11:47:22.809Z,15568.00
2023-04-09T11:48:22.777Z,15308.00
2023-04-09T11:49:22.766Z,15648.00
2023-04-09T11:50:22.767Z,15384.00
2023-04-09T11:51:22.746Z,15332.00
2023-04-09T11:52:22.729Z,14612.00
2023-04-09T11:53:22.730Z,12888.00
2023-04-09T11:54:22.738Z,12852.00
2023-04-09T11:55:22.706Z,12752.00
2023-04-09T11:56:22.695Z,10540.00
2023-04-09T11:57:22.686Z,9720.00
2023-04-09T11:58:22.707Z,13752.00
2023-04-09T11:59:22.663Z,12740.00
2023-04-09T12:00:22.646Z,12464.00
2023-04-09T12:01:22.634Z,12276.00
2023-04-09T12:02:22.797Z,9636.00
2023-04-09T12:03:22.936Z,9108.00
2023-04-09T12:04:22.740Z,7128.00
2023-04-09T12:05:22.592Z,7544.00
2023-04-09T12:06:22.594Z,6812.00
2023-04-09T12:07:22.565Z,8884.00
2023-04-09T12:08:22.556Z,11712.00
2023-04-09T12:09:22.546Z,13472.00
2023-04-09T12:10:22.562Z,13072.00
2023-04-09T12:11:22.522Z,12788.00
2023-04-09T12:12:22.518Z,12644.00
2023-04-09T12:13:22.501Z,12636.00
2023-04-09T12:14:22.499Z,12504.00
2023-04-09T12:15:22.484Z,12436.00
2023-04-09T12:16:22.490Z,12416.00
2023-04-09T12:17:22.469Z,12076.00
2023-04-09T12:18:22.449Z,12076.00
2023-04-09T12:19:22.444Z,12288.00
2023-04-09T12:20:22.424Z,12040.00
2023-04-09T12:21:22.417Z,11808.00
2023-04-09T12:22:22.405Z,11540.00
2023-04-09T12:23:22.391Z,11120.00
2023-04-09T12:24:22.384Z,10744.00
2023-04-09T12:25:22.376Z,10384.00
2023-04-09T12:26:22.386Z,10388.00
2023-04-09T12:27:22.342Z,10256.00
2023-04-09T12:28:22.337Z,10004.00
2023-04-09T12:29:22.334Z,9552.00
2023-04-09T12:30:22.316Z,8936.00